Time;durP1;ratioP1;P1;durP2;ratioP2;P2;SDS_P1;SDS_P2;PMS_P1;PMS_P2;Temp;Humidity;BMP_temperature;BMP_pressure;BME280_temperature;BME280_humidity;BME280_pressure;Samples;Min_cycle;Max_cycle;Signal;HPM_P1;HPM_P2
2022/12/05 00:00:28;;;;;;;;;;;3.90;99.90;;;;;;7338005;19;108788;-84
2022/12/05 00:02:56;;;;;;;;;;;3.90;99.90;;;;;;7337388;19;110751;-84
2022/12/05 00:05:23;;;;;;;;;;;3.90;99.90;;;;;;7340508;19;110758;-84
2022/12/05 00:07:50;;;;;;;;;;;4.00;99.90;;;;;;7339645;19;111806;-84
2022/12/05 00:10:17;;;;;;;;;;;3.90;99.90;;;;;;7337831;19;110267;-84
2022/12/05 00:12:44;;;;;;;;;;;3.90;99.90;;;;;;7339705;19;109767;-84
2022/12/05 00:15:11;;;;;;;;;;;4.00;99.90;;;;;;7334783;19;109438;-84
2022/12/05 00:17:39;;;;;;;;;;;4.00;99.90;;;;;;7335653;19;110584;-83
2022/12/05 00:20:07;;;;;;;;;;;4.00;99.90;;;;;;7336963;19;109612;-83
2022/12/05 00:22:34;;;;;;;;;;;4.00;99.90;;;;;;7338698;19;109480;-84
2022/12/05 00:25:02;;;;;;;;;;;3.90;99.90;;;;;;7343793;19;110598;-84
2022/12/05 00:27:29;;;;;;;;;;;3.90;99.90;;;;;;7336602;19;109280;-84
2022/12/05 00:29:56;;;;;;;;;;;4.00;99.90;;;;;;7337652;19;114004;-84
2022/12/05 00:32:23;;;;;;;;;;;4.00;99.90;;;;;;7337312;19;108781;-84
2022/12/05 00:34:50;;;;;;;;;;;4.00;99.90;;;;;;7338183;19;109220;-85
2022/12/05 00:37:17;;;;;;;;;;;3.90;99.90;;;;;;7334592;19;110180;-84
2022/12/05 00:39:44;;;;;;;;;;;3.90;99.90;;;;;;7339692;19;108522;-83
2022/12/05 00:42:11;;;;;;;;;;;3.90;99.90;;;;;;7338985;19;109627;-84
2022/12/05 00:44:38;;;;;;;;;;;4.00;99.90;;;;;;7337825;19;110214;-84
2022/12/05 00:47:05;;;;;;;;;;;4.00;99.90;;;;;;7342572;19;108722;-84
2022/12/05 00:49:32;;;;;;;;;;;4.00;99.90;;;;;;7339033;19;109958;-84
2022/12/05 00:51:59;;;;;;;;;;;4.00;99.90;;;;;;7339776;19;109051;-84
2022/12/05 00:54:26;;;;;;;;;;;3.90;99.90;;;;;;7335693;19;109533;-83
2022/12/05 00:56:55;;;;;;;;;;;3.90;99.90;;;;;;7338185;19;110630;-84
2022/12/05 00:59:22;;;;;;;;;;;3.90;99.90;;;;;;7334129;19;108666;-84
2022/12/05 01:01:49;;;;;;;;;;;3.90;99.90;;;;;;7337827;19;111484;-84
2022/12/05 01:04:18;;;;;;;;;;;3.90;99.90;;;;;;7333179;19;111462;-69
2022/12/05 01:06:45;;;;;;;;;;;3.90;99.90;;;;;;7334025;19;108492;-69
2022/12/05 01:09:13;;;;;;;;;;;3.90;99.90;;;;;;7338671;19;109306;-69
2022/12/05 01:11:40;;;;;;;;;;;3.90;99.90;;;;;;7337605;19;108531;-69
2022/12/05 01:14:08;;;;;;;;;;;3.90;99.90;;;;;;7336464;19;109788;-69
2022/12/05 01:16:36;;;;;;;;;;;4.00;99.90;;;;;;7338503;19;111146;-69
2022/12/05 01:19:04;;;;;;;;;;;4.00;99.90;;;;;;7337364;19;109086;-69
2022/12/05 01:21:32;;;;;;;;;;;4.10;99.90;;;;;;7336710;19;109192;-68
2022/12/05 01:23:58;;;;;;;;;;;4.10;99.90;;;;;;7336467;19;110601;-69
2022/12/05 01:26:25;;;;;;;;;;;4.10;99.90;;;;;;7335102;19;109562;-69
2022/12/05 01:28:52;;;;;;;;;;;4.10;99.90;;;;;;7334744;19;108995;-69
2022/12/05 01:31:22;;;;;;;;;;;4.10;99.90;;;;;;7343748;19;110149;-69
2022/12/05 01:33:49;;;;;;;;;;;4.10;99.90;;;;;;7336410;19;109137;-69
2022/12/05 01:36:16;;;;;;;;;;;4.10;99.90;;;;;;7335743;19;110256;-70
2022/12/05 01:38:43;;;;;;;;;;;4.10;99.90;;;;;;7336929;19;110944;-69
2022/12/05 01:41:12;;;;;;;;;;;4.10;99.90;;;;;;7332071;19;109567;-69
2022/12/05 01:44:00;;;;;;;;;;;4.10;99.90;;;;;;7335362;19;110621;-69
2022/12/05 01:46:28;;;;;;;;;;;4.10;99.90;;;;;;7335460;19;109121;-69
2022/12/05 01:49:08;;;;;;;;;;;4.20;99.90;;;;;;7337757;19;109575;-69
2022/12/05 01:51:36;;;;;;;;;;;4.10;99.90;;;;;;7337278;19;110376;-69
2022/12/05 01:54:03;;;;;;;;;;;4.20;99.90;;;;;;7340778;19;108329;-69
2022/12/05 01:56:31;;;;;;;;;;;4.20;99.90;;;;;;7333715;19;110296;-68
2022/12/05 01:58:59;;;;;;;;;;;4.20;99.90;;;;;;7336986;19;109106;-71
2022/12/05 02:01:26;;;;;;;;;;;4.20;99.90;;;;;;7334932;19;109219;-69
2022/12/05 02:03:55;;;;;;;;;;;4.20;99.90;;;;;;7336765;19;109150;-69
2022/12/05 02:06:23;;;;;;;;;;;4.30;99.90;;;;;;7335550;19;108352;-69
2022/12/05 02:08:53;;;;;;;;;;;4.30;99.90;;;;;;7336027;19;108910;-69
2022/12/05 02:11:22;;;;;;;;;;;4.30;99.90;;;;;;7335523;19;110346;-72
2022/12/05 02:14:01;;;;;;;;;;;4.30;99.90;;;;;;7336690;19;108737;-69
2022/12/05 02:16:37;;;;;;;;;;;4.30;99.90;;;;;;7340838;19;121022;-68
2022/12/05 02:19:34;;;;;;;;;;;4.30;99.90;;;;;;7336314;19;109048;-68
2022/12/05 02:22:20;;;;;;;;;;;4.30;99.90;;;;;;7335430;19;109222;-68
2022/12/05 02:24:56;;;;;;;;;;;4.30;99.90;;;;;;7333484;19;110389;-68
2022/12/05 02:27:41;;;;;;;;;;;4.30;99.90;;;;;;7333408;19;108890;-68
2022/12/05 02:30:08;;;;;;;;;;;4.30;99.90;;;;;;7334940;19;108605;-69
2022/12/05 02:32:54;;;;;;;;;;;4.30;99.90;;;;;;7335010;19;113640;-69
2022/12/05 02:35:24;;;;;;;;;;;4.30;99.90;;;;;;7334788;19;112962;-68
2022/12/05 02:37:55;;;;;;;;;;;4.40;99.90;;;;;;7338695;19;109627;-69
2022/12/05 02:40:28;;;;;;;;;;;4.30;99.90;;;;;;7333087;19;109297;-69
2022/12/05 02:42:59;;;;;;;;;;;4.30;99.90;;;;;;7334145;19;108890;-70
2022/12/05 02:45:28;;;;;;;;;;;4.40;99.90;;;;;;7331869;19;110414;-69
2022/12/05 02:47:56;;;;;;;;;;;4.30;99.90;;;;;;7331241;19;110690;-69
2022/12/05 02:50:25;;;;;;;;;;;4.30;99.90;;;;;;7333726;19;109136;-69
2022/12/05 02:52:54;;;;;;;;;;;4.30;99.90;;;;;;7337131;19;110400;-69
2022/12/05 02:55:22;;;;;;;;;;;4.30;99.90;;;;;;7336518;19;112352;-69
2022/12/05 02:57:51;;;;;;;;;;;4.30;99.90;;;;;;7335908;19;108625;-69
2022/12/05 03:00:18;;;;;;;;;;;4.30;99.90;;;;;;7341719;19;110267;-68
2022/12/05 03:02:47;;;;;;;;;;;4.20;99.90;;;;;;7334424;19;109652;-68
2022/12/05 03:05:18;;;;;;;;;;;4.20;99.90;;;;;;7331194;19;109596;-68
2022/12/05 03:07:47;;;;;;;;;;;4.30;99.90;;;;;;7332854;19;108565;-68
2022/12/05 03:10:16;;;;;;;;;;;4.30;99.90;;;;;;7329207;19;108718;-68
2022/12/05 03:12:47;;;;;;;;;;;4.30;99.90;;;;;;7334252;19;109348;-67
2022/12/05 03:15:21;;;;;;;;;;;4.30;99.90;;;;;;7332217;19;110538;-68
2022/12/05 03:17:55;;;;;;;;;;;4.30;99.90;;;;;;7337619;19;109451;-68
2022/12/05 03:20:25;;;;;;;;;;;4.30;99.90;;;;;;7332549;19;113500;-68
2022/12/05 03:22:55;;;;;;;;;;;4.30;99.90;;;;;;7335366;19;109040;-68
2022/12/05 03:25:24;;;;;;;;;;;4.30;99.90;;;;;;7328983;19;111516;-68
2022/12/05 03:27:52;;;;;;;;;;;4.30;99.90;;;;;;7337559;19;108801;-67
2022/12/05 03:30:21;;;;;;;;;;;4.30;99.90;;;;;;7334286;19;109342;-68
2022/12/05 03:33:01;;;;;;;;;;;4.40;99.90;;;;;;7331208;19;109570;-68
2022/12/05 03:35:43;;;;;;;;;;;4.40;99.90;;;;;;7332462;19;108675;-67
2022/12/05 03:38:12;;;;;;;;;;;4.40;99.90;;;;;;7331212;19;109287;-68
2022/12/05 03:40:42;;;;;;;;;;;4.30;99.90;;;;;;7331765;19;110302;-68
2022/12/05 03:43:12;;;;;;;;;;;4.30;99.90;;;;;;7332542;19;109012;-68
2022/12/05 03:45:48;;;;;;;;;;;4.30;99.90;;;;;;7336984;19;109230;-67
2022/12/05 03:48:20;;;;;;;;;;;4.40;99.90;;;;;;7333128;19;108702;-67
2022/12/05 03:50:48;;;;;;;;;;;4.40;99.90;;;;;;7337033;19;109454;-67
2022/12/05 03:53:18;;;;;;;;;;;4.40;99.90;;;;;;7336361;19;110367;-67
2022/12/05 03:55:49;;;;;;;;;;;4.40;99.90;;;;;;7331394;19;109017;-68
2022/12/05 03:58:21;;;;;;;;;;;4.40;99.90;;;;;;7336547;19;113629;-67
2022/12/05 04:00:49;;;;;;;;;;;4.40;99.90;;;;;;7335496;19;109599;-68
2022/12/05 04:03:19;;;;;;;;;;;4.40;99.90;;;;;;7332603;19;108703;-67
2022/12/05 04:05:53;;;;;;;;;;;4.40;99.90;;;;;;7336855;19;112307;-67
2022/12/05 04:08:20;;;;;;;;;;;4.40;99.90;;;;;;7341493;19;114227;-68
2022/12/05 04:10:49;;;;;;;;;;;4.40;99.90;;;;;;7336755;19;108816;-68
2022/12/05 04:13:18;;;;;;;;;;;4.40;99.90;;;;;;7330499;19;111271;-68
2022/12/05 04:18:38;;;;;;;;;;;4.40;99.90;;;;;;7329816;19;109443;-68
2022/12/05 04:25:31;;;;;;;;;;;4.40;99.90;;;;;;7331985;19;108973;-68
2022/12/05 04:26:42;;;;;;;;;;;4.40;99.90;;;;;;7330591;19;109475;-68
2022/12/05 04:29:14;;;;;;;;;;;4.40;99.90;;;;;;7332865;19;109290;-69
2022/12/05 04:31:46;;;;;;;;;;;4.40;99.90;;;;;;7337092;19;108791;-68
2022/12/05 04:34:14;;;;;;;;;;;4.40;99.90;;;;;;7336301;19;109730;-68
2022/12/05 04:36:44;;;;;;;;;;;4.40;99.90;;;;;;7339928;19;114356;-68
2022/12/05 04:39:17;;;;;;;;;;;4.40;99.90;;;;;;7342683;19;111836;-68
2022/12/05 04:42:01;;;;;;;;;;;4.50;99.90;;;;;;7338007;19;109167;-68
2022/12/05 04:44:31;;;;;;;;;;;4.40;99.90;;;;;;7339258;19;108406;-68
2022/12/05 04:47:00;;;;;;;;;;;4.40;99.90;;;;;;7343802;19;109875;-68
2022/12/05 04:49:28;;;;;;;;;;;4.40;99.90;;;;;;7340478;19;110112;-68
2022/12/05 04:51:57;;;;;;;;;;;4.40;99.90;;;;;;7346716;19;108578;-68
2022/12/05 04:54:33;;;;;;;;;;;4.30;99.90;;;;;;7336121;19;109168;-69
2022/12/05 04:57:11;;;;;;;;;;;4.40;99.90;;;;;;7338527;19;111131;-68
2022/12/05 04:59:38;;;;;;;;;;;4.50;99.90;;;;;;7343158;19;109213;-68
2022/12/05 05:02:09;;;;;;;;;;;4.40;99.90;;;;;;7340335;19;113263;-68
2022/12/05 05:04:41;;;;;;;;;;;4.40;99.90;;;;;;7342145;19;109301;-68
2022/12/05 05:07:09;;;;;;;;;;;4.40;99.90;;;;;;7341918;19;109236;-68
2022/12/05 05:09:36;;;;;;;;;;;4.40;99.90;;;;;;7341008;19;110270;-68
2022/12/05 05:12:04;;;;;;;;;;;4.40;99.90;;;;;;7341257;19;108987;-68
2022/12/05 05:14:31;;;;;;;;;;;4.40;99.90;;;;;;7344720;19;109563;-68
2022/12/05 05:16:58;;;;;;;;;;;4.40;99.90;;;;;;7336377;19;108912;-68
2022/12/05 05:19:24;;;;;;;;;;;4.40;99.90;;;;;;7336162;19;110014;-68
2022/12/05 05:21:52;;;;;;;;;;;4.30;99.90;;;;;;7341448;19;109600;-68
2022/12/05 05:24:20;;;;;;;;;;;4.40;99.90;;;;;;7340905;19;108868;-68
2022/12/05 05:26:47;;;;;;;;;;;4.40;99.90;;;;;;7338755;19;109626;-68
2022/12/05 05:29:22;;;;;;;;;;;4.40;99.90;;;;;;7336518;19;110209;-68
2022/12/05 05:31:49;;;;;;;;;;;4.40;99.90;;;;;;7341047;19;110256;-68
2022/12/05 05:34:16;;;;;;;;;;;4.40;99.90;;;;;;7339614;19;110259;-69
2022/12/05 05:36:43;;;;;;;;;;;4.40;99.90;;;;;;7345826;19;110276;-68
2022/12/05 05:39:11;;;;;;;;;;;4.40;99.90;;;;;;7341175;19;109917;-68
2022/12/05 05:41:38;;;;;;;;;;;4.30;99.90;;;;;;7339384;19;110244;-69
2022/12/05 05:44:05;;;;;;;;;;;4.40;99.90;;;;;;7338860;19;108744;-68
2022/12/05 05:46:32;;;;;;;;;;;4.40;99.90;;;;;;7338651;19;109339;-69
2022/12/05 05:48:59;;;;;;;;;;;4.40;99.90;;;;;;7339716;19;109492;-68
2022/12/05 05:51:28;;;;;;;;;;;4.40;99.90;;;;;;7337040;19;112198;-68
2022/12/05 05:53:55;;;;;;;;;;;4.40;99.90;;;;;;7339790;19;110013;-68
2022/12/05 05:56:22;;;;;;;;;;;4.40;99.90;;;;;;7337403;19;109163;-68
2022/12/05 05:59:00;;;;;;;;;;;4.40;99.90;;;;;;7343468;19;108481;-68
2022/12/05 06:01:27;;;;;;;;;;;4.40;99.90;;;;;;7335490;19;112336;-68
2022/12/05 06:03:55;;;;;;;;;;;4.40;99.90;;;;;;7338971;19;108875;-68
2022/12/05 06:06:22;;;;;;;;;;;4.50;99.90;;;;;;7336209;19;109749;-68
2022/12/05 06:08:49;;;;;;;;;;;4.40;99.90;;;;;;7340199;19;111740;-68
2022/12/05 06:11:17;;;;;;;;;;;4.40;99.90;;;;;;7338810;19;108583;-68
2022/12/05 06:13:53;;;;;;;;;;;4.40;99.90;;;;;;7338647;19;108600;-68
2022/12/05 06:16:20;;;;;;;;;;;4.40;99.90;;;;;;7331928;19;109949;-68
2022/12/05 06:18:48;;;;;;;;;;;4.40;99.90;;;;;;7338661;19;108669;-68
2022/12/05 06:21:15;;;;;;;;;;;4.40;99.90;;;;;;7338399;19;109571;-69
2022/12/05 06:23:42;;;;;;;;;;;4.40;99.90;;;;;;7339146;19;109313;-69
2022/12/05 06:26:10;;;;;;;;;;;4.40;99.90;;;;;;7336893;19;109217;-69
2022/12/05 06:28:38;;;;;;;;;;;4.40;99.90;;;;;;7340741;19;110821;-68
2022/12/05 06:31:06;;;;;;;;;;;4.40;99.90;;;;;;7341819;19;108744;-68
2022/12/05 06:33:33;;;;;;;;;;;4.50;99.90;;;;;;7342875;19;109411;-69
2022/12/05 06:36:01;;;;;;;;;;;4.40;99.90;;;;;;7339689;19;113483;-68
2022/12/05 06:38:28;;;;;;;;;;;4.40;99.90;;;;;;7338154;19;112709;-68
2022/12/05 06:40:55;;;;;;;;;;;4.40;99.90;;;;;;7346308;19;109354;-73
2022/12/05 06:43:22;;;;;;;;;;;4.40;99.90;;;;;;7343445;19;108932;-72
2022/12/05 06:45:49;;;;;;;;;;;4.40;99.90;;;;;;7342072;19;109860;-73
2022/12/05 06:48:16;;;;;;;;;;;4.40;99.90;;;;;;7340591;19;110579;-69
2022/12/05 06:50:52;;;;;;;;;;;4.50;99.90;;;;;;7344809;19;108734;-69
2022/12/05 06:53:19;;;;;;;;;;;4.40;99.90;;;;;;7343695;19;109331;-68
2022/12/05 06:56:06;;;;;;;;;;;4.50;99.90;;;;;;7341853;19;110142;-72
2022/12/05 06:58:33;;;;;;;;;;;4.40;99.90;;;;;;7341438;19;110138;-68
2022/12/05 07:03:47;;;;;;;;;;;4.50;99.90;;;;;;7342895;19;111401;-76
2022/12/05 07:06:15;;;;;;;;;;;4.50;99.90;;;;;;7336899;19;109116;-70
2022/12/05 07:08:42;;;;;;;;;;;4.50;99.90;;;;;;7339421;19;109579;-76
2022/12/05 07:11:09;;;;;;;;;;;4.50;99.90;;;;;;7336482;19;108375;-74
2022/12/05 07:13:36;;;;;;;;;;;4.60;99.90;;;;;;7337811;19;112264;-72
2022/12/05 07:16:05;;;;;;;;;;;4.60;99.90;;;;;;7336755;19;110270;-70
2022/12/05 07:18:33;;;;;;;;;;;4.50;99.90;;;;;;7340678;19;109939;-71
2022/12/05 07:21:02;;;;;;;;;;;4.60;99.90;;;;;;7335513;19;109205;-75
2022/12/05 07:23:38;;;;;;;;;;;4.60;99.90;;;;;;7338064;19;110337;-68
2022/12/05 07:26:06;;;;;;;;;;;4.60;99.90;;;;;;7344350;19;110097;-84
2022/12/05 07:28:33;;;;;;;;;;;4.60;99.90;;;;;;7355707;19;109903;-84
2022/12/05 07:31:01;;;;;;;;;;;4.60;99.90;;;;;;7349638;19;108930;-84
2022/12/05 07:33:28;;;;;;;;;;;4.60;99.90;;;;;;7351614;19;108618;-84
2022/12/05 07:36:03;;;;;;;;;;;4.60;99.90;;;;;;7350896;19;112694;-85
2022/12/05 07:38:30;;;;;;;;;;;4.60;99.90;;;;;;7353070;19;108805;-84
2022/12/05 07:40:57;;;;;;;;;;;4.70;99.90;;;;;;7342542;19;111655;-85
2022/12/05 07:43:26;;;;;;;;;;;4.70;99.90;;;;;;7340998;19;110719;-85
2022/12/05 07:45:53;;;;;;;;;;;4.60;99.90;;;;;;7348746;19;108500;-84
2022/12/05 07:48:21;;;;;;;;;;;4.70;99.90;;;;;;7352585;19;109518;-84
2022/12/05 07:50:48;;;;;;;;;;;4.60;99.90;;;;;;7346898;19;108205;-83
2022/12/05 07:53:15;;;;;;;;;;;4.70;99.90;;;;;;7345467;19;110154;-83
2022/12/05 07:55:41;;;;;;;;;;;4.70;99.90;;;;;;7345709;19;109662;-84
2022/12/05 07:58:08;;;;;;;;;;;4.70;99.90;;;;;;7347081;19;108091;-83
2022/12/05 08:00:35;;;;;;;;;;;4.70;99.90;;;;;;7347448;19;108505;-82
2022/12/05 08:03:02;;;;;;;;;;;4.70;99.90;;;;;;7345091;19;110571;-84
2022/12/05 08:05:29;;;;;;;;;;;4.80;99.90;;;;;;7345398;19;108628;-84
2022/12/05 08:07:56;;;;;;;;;;;4.80;99.90;;;;;;7347313;19;108376;-85
2022/12/05 08:10:23;;;;;;;;;;;4.80;99.90;;;;;;7346405;19;110365;-84
2022/12/05 08:12:50;;;;;;;;;;;4.80;99.90;;;;;;7348252;19;109902;-84
2022/12/05 08:15:17;;;;;;;;;;;4.80;99.90;;;;;;7348378;19;110703;-84
2022/12/05 08:17:44;;;;;;;;;;;4.80;99.90;;;;;;7346937;19;108792;-84
2022/12/05 08:20:11;;;;;;;;;;;4.80;99.90;;;;;;7342736;19;109520;-84
2022/12/05 08:22:38;;;;;;;;;;;4.90;99.90;;;;;;7333196;19;111970;-83
2022/12/05 08:25:06;;;;;;;;;;;4.90;99.90;;;;;;7344917;19;110342;-84
2022/12/05 08:27:33;;;;;;;;;;;5.00;99.90;;;;;;7346182;19;108694;-84
2022/12/05 08:30:00;;;;;;;;;;;5.00;99.90;;;;;;7340907;19;109354;-84
2022/12/05 08:32:27;;;;;;;;;;;5.00;99.90;;;;;;7347579;19;108662;-83
2022/12/05 08:34:53;;;;;;;;;;;5.00;99.90;;;;;;7337197;19;111642;-84
2022/12/05 08:37:20;;;;;;;;;;;5.00;99.90;;;;;;7332113;19;108796;-85
2022/12/05 08:39:47;;;;;;;;;;;5.00;99.90;;;;;;7333583;19;109449;-84
2022/12/05 08:42:15;;;;;;;;;;;5.00;99.90;;;;;;7336002;19;109582;-84
2022/12/05 08:44:42;;;;;;;;;;;5.00;99.90;;;;;;7345071;19;109972;-84
2022/12/05 08:47:09;;;;;;;;;;;5.00;99.90;;;;;;7346525;19;108799;-83
2022/12/05 08:49:36;;;;;;;;;;;5.00;99.90;;;;;;7344279;19;114186;-84
2022/12/05 08:52:03;;;;;;;;;;;5.00;99.90;;;;;;7348974;19;108616;-84
2022/12/05 08:54:30;;;;;;;;;;;5.00;99.90;;;;;;7338289;19;112030;-84
2022/12/05 08:56:58;;;;;;;;;;;5.00;99.90;;;;;;7341011;19;109994;-84
2022/12/05 08:59:25;;;;;;;;;;;5.00;99.90;;;;;;7339797;19;109756;-84
2022/12/05 09:01:52;;;;;;;;;;;5.10;99.90;;;;;;7341819;19;110224;-84
2022/12/05 09:04:19;;;;;;;;;;;5.00;99.90;;;;;;7337133;19;108944;-84
2022/12/05 09:06:45;;;;;;;;;;;5.00;99.90;;;;;;7340710;19;109253;-87
2022/12/05 09:09:12;;;;;;;;;;;5.00;99.90;;;;;;7336502;19;109930;-87
2022/12/05 09:11:44;;;;;;;;;;;5.00;99.90;;;;;;7338901;19;108776;-87
2022/12/05 09:14:12;;;;;;;;;;;5.00;99.90;;;;;;7342736;19;109093;-87
2022/12/05 09:16:39;;;;;;;;;;;5.00;99.90;;;;;;7338519;19;109388;-86
2022/12/05 09:19:11;;;;;;;;;;;5.10;99.90;;;;;;7334457;19;109912;-87
2022/12/05 09:21:38;;;;;;;;;;;5.10;99.90;;;;;;7340882;19;110383;-87
2022/12/05 09:24:06;;;;;;;;;;;5.10;99.90;;;;;;7339161;19;108376;-87
2022/12/05 09:26:33;;;;;;;;;;;5.00;99.90;;;;;;7339526;19;109629;-86
2022/12/05 09:29:00;;;;;;;;;;;5.00;99.90;;;;;;7343840;19;110807;-87
2022/12/05 09:31:29;;;;;;;;;;;5.00;99.90;;;;;;7343003;19;109419;-88
2022/12/05 09:33:56;;;;;;;;;;;5.00;99.90;;;;;;7345301;19;108407;-87
2022/12/05 09:36:24;;;;;;;;;;;5.10;99.90;;;;;;7351500;19;110136;-87
2022/12/05 09:38:52;;;;;;;;;;;5.10;99.90;;;;;;7346150;19;109566;-87
2022/12/05 09:44:36;;;;;;;;;;;5.10;99.90;;;;;;7344527;19;109722;-87
2022/12/05 09:47:12;;;;;;;;;;;5.10;99.90;;;;;;7344748;19;109462;-87
2022/12/05 09:49:42;;;;;;;;;;;5.10;99.90;;;;;;7348812;19;111915;-87
2022/12/05 09:52:23;;;;;;;;;;;5.20;99.90;;;;;;7349542;19;108507;-87
2022/12/05 09:54:52;;;;;;;;;;;5.20;99.90;;;;;;7351423;19;109587;-86
2022/12/05 09:57:39;;;;;;;;;;;5.20;99.90;;;;;;7337895;19;110434;-67
2022/12/05 10:00:08;;;;;;;;;;;5.30;99.90;;;;;;7345759;19;109678;-67
2022/12/05 10:02:50;;;;;;;;;;;5.20;99.90;;;;;;7340476;19;110235;-67
2022/12/05 10:05:35;;;;;;;;;;;5.20;99.90;;;;;;7340559;19;109156;-67
2022/12/05 10:08:19;;;;;;;;;;;5.30;99.90;;;;;;7338964;19;109159;-67
2022/12/05 10:10:45;;;;;;;;;;;5.30;99.90;;;;;;7340122;19;110260;-67
2022/12/05 10:13:12;;;;;;;;;;;5.30;99.90;;;;;;7338569;19;108346;-67
2022/12/05 10:15:54;;;;;;;;;;;5.30;99.90;;;;;;7341803;19;109175;-67
2022/12/05 10:18:32;;;;;;;;;;;5.30;99.90;;;;;;7341447;19;110286;-67
2022/12/05 10:21:04;;;;;;;;;;;5.30;99.90;;;;;;7340121;19;108840;-67
2022/12/05 10:23:37;;;;;;;;;;;5.20;99.90;;;;;;7343991;19;110105;-67
2022/12/05 10:26:29;;;;;;;;;;;5.20;99.90;;;;;;7337724;19;109635;-68
2022/12/05 10:29:13;;;;;;;;;;;5.20;99.90;;;;;;7339671;19;109181;-67
2022/12/05 10:31:41;;;;;;;;;;;5.30;99.90;;;;;;7340301;19;109296;-67
2022/12/05 10:34:15;;;;;;;;;;;5.30;99.90;;;;;;7338395;19;108622;-67
2022/12/05 10:36:48;;;;;;;;;;;5.30;99.90;;;;;;7339594;19;108723;-67
2022/12/05 10:39:15;;;;;;;;;;;5.30;99.90;;;;;;7335709;19;110691;-67
2022/12/05 10:41:42;;;;;;;;;;;5.30;99.90;;;;;;7341579;19;108721;-67
2022/12/05 10:44:09;;;;;;;;;;;5.40;99.90;;;;;;7338443;19;109219;-67
2022/12/05 10:46:36;;;;;;;;;;;5.40;99.90;;;;;;7344372;19;110236;-67
2022/12/05 10:49:08;;;;;;;;;;;5.40;99.90;;;;;;7339630;19;108936;-68
2022/12/05 10:51:35;;;;;;;;;;;5.50;99.90;;;;;;7340745;19;111339;-67
2022/12/05 10:54:24;;;;;;;;;;;5.50;99.90;;;;;;7338307;19;108824;-67
2022/12/05 10:56:52;;;;;;;;;;;5.60;99.90;;;;;;7339698;19;112641;-67
2022/12/05 10:59:20;;;;;;;;;;;5.60;99.90;;;;;;7339091;19;109750;-67
2022/12/05 11:01:48;;;;;;;;;;;5.60;99.90;;;;;;7338545;19;109391;-67
2022/12/05 11:04:29;;;;;;;;;;;5.60;99.90;;;;;;7338417;19;111343;-67
2022/12/05 11:06:55;;;;;;;;;;;5.60;99.90;;;;;;7341829;19;110372;-67
2022/12/05 11:09:24;;;;;;;;;;;5.60;99.90;;;;;;7335994;19;108501;-67
2022/12/05 11:12:15;;;;;;;;;;;5.60;99.90;;;;;;7339007;19;110348;-67
2022/12/05 11:14:53;;;;;;;;;;;5.70;99.90;;;;;;7341061;19;108732;-67
2022/12/05 11:17:26;;;;;;;;;;;5.80;99.90;;;;;;7338876;19;110192;-67
2022/12/05 11:19:53;;;;;;;;;;;5.90;99.90;;;;;;7336656;19;111301;-67
2022/12/05 11:22:28;;;;;;;;;;;5.90;99.90;;;;;;7338477;19;109032;-67
2022/12/05 11:24:55;;;;;;;;;;;5.90;99.90;;;;;;7339029;19;109467;-67
2022/12/05 11:27:27;;;;;;;;;;;5.90;99.90;;;;;;7337026;19;110582;-67
2022/12/05 11:30:09;;;;;;;;;;;5.90;99.90;;;;;;7344145;19;108372;-67
2022/12/05 11:32:36;;;;;;;;;;;5.90;99.90;;;;;;7336925;19;110189;-67
2022/12/05 11:35:07;;;;;;;;;;;5.90;99.90;;;;;;7336581;19;108375;-67
2022/12/05 11:37:54;;;;;;;;;;;5.90;99.90;;;;;;7337741;19;109324;-67
2022/12/05 11:40:46;;;;;;;;;;;5.90;99.90;;;;;;7335288;19;109447;-68
2022/12/05 11:43:13;;;;;;;;;;;5.90;99.90;;;;;;7339010;19;108815;-67
2022/12/05 11:45:45;;;;;;;;;;;5.90;99.90;;;;;;7346808;19;109155;-68
2022/12/05 11:48:12;;;;;;;;;;;5.90;99.90;;;;;;7343670;19;110287;-67
2022/12/05 11:50:41;;;;;;;;;;;6.00;99.90;;;;;;7344638;19;109567;-67
2022/12/05 11:53:27;;;;;;;;;;;6.00;99.90;;;;;;7349413;19;109233;-68
2022/12/05 11:56:01;;;;;;;;;;;6.00;99.90;;;;;;7343662;19;109284;-67
2022/12/05 11:58:45;;;;;;;;;;;6.10;99.90;;;;;;7342652;19;108795;-67
2022/12/05 12:01:35;;;;;;;;;;;6.10;99.90;;;;;;7342092;19;109480;-67
2022/12/05 12:04:08;;;;;;;;;;;6.10;99.90;;;;;;7343016;19;108462;-67
2022/12/05 12:06:38;;;;;;;;;;;6.10;99.90;;;;;;7344250;19;109354;-68
2022/12/05 12:09:16;;;;;;;;;;;6.20;99.90;;;;;;7344404;19;110799;-68
2022/12/05 12:11:46;;;;;;;;;;;6.20;99.90;;;;;;7345053;19;108707;-67
2022/12/05 12:14:22;;;;;;;;;;;6.20;99.90;;;;;;7344602;19;109091;-67
2022/12/05 12:16:58;;;;;;;;;;;6.20;99.90;;;;;;7349532;19;109259;-68
2022/12/05 12:19:34;;;;;;;;;;;6.20;99.90;;;;;;7344082;19;109093;-67
2022/12/05 12:22:16;;;;;;;;;;;6.20;99.90;;;;;;7343373;19;109172;-67
2022/12/05 12:24:55;;;;;;;;;;;6.20;99.90;;;;;;7344779;19;111551;-67
2022/12/05 12:27:31;;;;;;;;;;;6.20;99.90;;;;;;7344281;19;109402;-67
2022/12/05 12:30:19;;;;;;;;;;;6.30;99.90;;;;;;7343157;19;110220;-67
2022/12/05 12:32:55;;;;;;;;;;;6.30;99.90;;;;;;7343174;19;108749;-67
2022/12/05 12:35:29;;;;;;;;;;;6.40;99.90;;;;;;7342314;19;109765;-67
2022/12/05 12:38:16;;;;;;;;;;;6.40;99.90;;;;;;7343877;19;110512;-67
2022/12/05 12:40:42;;;;;;;;;;;6.40;99.90;;;;;;7347645;19;109544;-67
2022/12/05 12:43:27;;;;;;;;;;;6.40;99.90;;;;;;7342456;19;109307;-67
2022/12/05 12:46:17;;;;;;;;;;;6.40;99.90;;;;;;7340804;19;108773;-67
2022/12/05 12:48:53;;;;;;;;;;;6.40;99.90;;;;;;7343052;19;109372;-67
2022/12/05 12:51:20;;;;;;;;;;;6.40;99.90;;;;;;7340693;19;108992;-68
2022/12/05 12:53:49;;;;;;;;;;;6.40;99.90;;;;;;7338986;19;108745;-67
2022/12/05 12:56:35;;;;;;;;;;;6.40;99.90;;;;;;7341510;19;111048;-67
2022/12/05 12:59:05;;;;;;;;;;;6.40;99.90;;;;;;7342082;19;110822;-67
2022/12/05 13:01:31;;;;;;;;;;;6.40;99.90;;;;;;7343081;19;109274;-67
2022/12/05 13:04:01;;;;;;;;;;;6.40;99.90;;;;;;7346857;19;109530;-67
2022/12/05 13:06:33;;;;;;;;;;;6.40;99.90;;;;;;7341930;19;108842;-67
2022/12/05 13:09:19;;;;;;;;;;;6.40;99.90;;;;;;7343555;19;109296;-67
2022/12/05 13:11:47;;;;;;;;;;;6.50;99.90;;;;;;7339826;19;109063;-68
2022/12/05 13:14:16;;;;;;;;;;;6.50;99.90;;;;;;7343401;19;108756;-67
2022/12/05 13:16:47;;;;;;;;;;;6.60;99.90;;;;;;7339701;19;109542;-67
2022/12/05 13:19:26;;;;;;;;;;;6.60;99.90;;;;;;7338982;19;111104;-67
2022/12/05 13:21:54;;;;;;;;;;;6.60;99.90;;;;;;7340879;19;108708;-68
2022/12/05 13:24:24;;;;;;;;;;;6.50;99.90;;;;;;7345971;19;110727;-68
2022/12/05 13:26:51;;;;;;;;;;;6.50;99.90;;;;;;7341793;19;108321;-68
2022/12/05 13:29:25;;;;;;;;;;;6.60;99.90;;;;;;7340389;19;109411;-67
2022/12/05 13:31:52;;;;;;;;;;;6.60;99.90;;;;;;7340079;19;109179;-67
2022/12/05 13:34:25;;;;;;;;;;;6.60;99.90;;;;;;7339264;19;108339;-67
2022/12/05 13:42:28;;;;;;;;;;;6.60;99.90;;;;;;7339828;19;108436;-68
2022/12/05 13:44:57;;;;;;;;;;;6.60;99.90;;;;;;7341305;19;110398;-67
2022/12/05 13:47:27;;;;;;;;;;;6.60;99.90;;;;;;7344853;19;109890;-67
2022/12/05 13:50:14;;;;;;;;;;;6.60;99.90;;;;;;7342807;19;109163;-68
2022/12/05 13:52:48;;;;;;;;;;;6.70;99.90;;;;;;7340485;19;110208;-68
2022/12/05 13:55:17;;;;;;;;;;;6.70;99.90;;;;;;7340844;19;108839;-67
2022/12/05 13:57:45;;;;;;;;;;;6.70;99.90;;;;;;7338824;19;109273;-68
2022/12/05 14:00:13;;;;;;;;;;;6.70;99.90;;;;;;7338859;19;110432;-68
2022/12/05 14:02:43;;;;;;;;;;;6.70;99.90;;;;;;7340880;19;108850;-68
2022/12/05 14:05:13;;;;;;;;;;;6.70;99.90;;;;;;7338259;19;109162;-68
2022/12/05 14:07:42;;;;;;;;;;;6.70;99.90;;;;;;7340126;19;111256;-67
2022/12/05 14:10:15;;;;;;;;;;;6.70;99.90;;;;;;7344783;19;108762;-69
2022/12/05 14:12:45;;;;;;;;;;;6.70;99.90;;;;;;7338734;19;110426;-68
2022/12/05 14:15:25;;;;;;;;;;;6.60;99.90;;;;;;7339375;19;108754;-67
2022/12/05 14:17:58;;;;;;;;;;;6.70;99.90;;;;;;7340339;19;109504;-68
2022/12/05 14:20:44;;;;;;;;;;;6.70;99.90;;;;;;7339173;19;110461;-67
2022/12/05 14:23:29;;;;;;;;;;;6.70;99.90;;;;;;7339713;19;108563;-67
2022/12/05 14:26:15;;;;;;;;;;;6.70;99.90;;;;;;7339888;19;109035;-67
2022/12/05 14:29:01;;;;;;;;;;;6.60;99.90;;;;;;7337478;19;110286;-67
2022/12/05 14:31:33;;;;;;;;;;;6.70;99.90;;;;;;7338714;19;108554;-68
2022/12/05 14:34:23;;;;;;;;;;;6.60;99.90;;;;;;7343947;19;110982;-68
2022/12/05 14:36:52;;;;;;;;;;;6.60;99.90;;;;;;7340777;19;109199;-67
2022/12/05 14:39:20;;;;;;;;;;;6.60;99.90;;;;;;7339153;19;109462;-67
2022/12/05 14:41:54;;;;;;;;;;;6.60;99.90;;;;;;7340480;19;109786;-68
2022/12/05 14:44:21;;;;;;;;;;;6.50;99.90;;;;;;7337615;19;108969;-68
2022/12/05 14:46:48;;;;;;;;;;;6.60;99.90;;;;;;7339422;19;109315;-67
2022/12/05 14:49:50;;;;;;;;;;;6.50;99.90;;;;;;7337672;19;113968;-69
2022/12/05 14:52:19;;;;;;;;;;;6.60;99.90;;;;;;7336273;19;109099;-74
2022/12/05 14:54:46;;;;;;;;;;;6.50;99.90;;;;;;7336766;19;109032;-75